sensor_id;sensor_type;location;lat;lon;timestamp;pressure;altitude;pressure_sealevel;temperature;humidity
59009;BME280;44794;42.652;23.318;2023-04-06T00:01:51;94275.72;;;-0.26;85.40
59009;BME280;44794;42.652;23.318;2023-04-06T00:04:16;94274.81;;;-0.25;85.04
59009;BME280;44794;42.652;23.318;2023-04-06T00:06:41;94268.78;;;-0.22;85.07
59009;BME280;44794;42.652;23.318;2023-04-06T00:09:07;94265.66;;;-0.29;85.07
59009;BME280;44794;42.652;23.318;2023-04-06T00:11:32;94260.53;;;-0.29;85.09
59009;BME280;44794;42.652;23.318;2023-04-06T00:13:58;94256.91;;;-0.23;85.19
59009;BME280;44794;42.652;23.318;2023-04-06T00:16:23;94256.97;;;-0.25;84.72
59009;BME280;44794;42.652;23.318;2023-04-06T00:18:49;94253.66;;;-0.27;84.83
59009;BME280;44794;42.652;23.318;2023-04-06T00:21:15;94257.06;;;-0.28;84.73
59009;BME280;44794;42.652;23.318;2023-04-06T00:23:41;94246.88;;;-0.28;84.89
59009;BME280;44794;42.652;23.318;2023-04-06T00:26:07;94247.00;;;-0.31;85.27
59009;BME280;44794;42.652;23.318;2023-04-06T00:28:33;94239.34;;;-0.31;85.02
59009;BME280;44794;42.652;23.318;2023-04-06T00:30:58;94243.44;;;-0.27;84.94
59009;BME280;44794;42.652;23.318;2023-04-06T00:33:23;94246.00;;;-0.27;85.03
59009;BME280;44794;42.652;23.318;2023-04-06T00:35:49;94246.13;;;-0.30;84.97
59009;BME280;44794;42.652;23.318;2023-04-06T00:38:16;94245.44;;;-0.35;85.21
59009;BME280;44794;42.652;23.318;2023-04-06T00:40:42;94238.41;;;-0.28;85.38
59009;BME280;44794;42.652;23.318;2023-04-06T00:43:10;94242.56;;;-0.26;85.35
59009;BME280;44794;42.652;23.318;2023-04-06T00:45:36;94237.88;;;-0.36;85.31
59009;BME280;44794;42.652;23.318;2023-04-06T00:48:03;94236.88;;;-0.32;85.57
59009;BME280;44794;42.652;23.318;2023-04-06T00:50:28;94234.25;;;-0.31;85.34
59009;BME280;44794;42.652;23.318;2023-04-06T00:52:54;94231.72;;;-0.31;85.50
59009;BME280;44794;42.652;23.318;2023-04-06T00:55:20;94226.72;;;-0.34;85.94
59009;BME280;44794;42.652;23.318;2023-04-06T00:57:46;94230.16;;;-0.35;86.30
59009;BME280;44794;42.652;23.318;2023-04-06T01:00:13;94230.34;;;-0.39;86.48
59009;BME280;44794;42.652;23.318;2023-04-06T01:02:38;94229.41;;;-0.37;86.64
59009;BME280;44794;42.652;23.318;2023-04-06T01:05:05;94229.94;;;-0.29;86.35
59009;BME280;44794;42.652;23.318;2023-04-06T01:07:31;94231.56;;;-0.28;86.45
59009;BME280;44794;42.652;23.318;2023-04-06T01:09:57;94234.00;;;-0.25;86.37
59009;BME280;44794;42.652;23.318;2023-04-06T01:12:24;94225.34;;;-0.21;86.21
59009;BME280;44794;42.652;23.318;2023-04-06T01:14:49;94225.41;;;-0.22;86.25
59009;BME280;44794;42.652;23.318;2023-04-06T01:17:15;94233.00;;;-0.21;86.55
59009;BME280;44794;42.652;23.318;2023-04-06T01:19:40;94220.31;;;-0.22;86.73
59009;BME280;44794;42.652;23.318;2023-04-06T01:22:06;94219.66;;;-0.27;87.03
59009;BME280;44794;42.652;23.318;2023-04-06T01:24:32;94221.38;;;-0.28;87.00
59009;BME280;44794;42.652;23.318;2023-04-06T01:26:58;94221.16;;;-0.22;86.87
59009;BME280;44794;42.652;23.318;2023-04-06T01:29:24;94221.19;;;-0.23;86.59
59009;BME280;44794;42.652;23.318;2023-04-06T01:31:49;94212.66;;;-0.22;86.59
59009;BME280;44794;42.652;23.318;2023-04-06T01:34:15;94217.47;;;-0.15;86.75
59009;BME280;44794;42.652;23.318;2023-04-06T01:36:40;94219.06;;;-0.12;86.44
59009;BME280;44794;42.652;23.318;2023-04-06T01:39:06;94217.41;;;-0.13;86.49
59009;BME280;44794;42.652;23.318;2023-04-06T01:41:31;94210.31;;;-0.07;86.30
59009;BME280;44794;42.652;23.318;2023-04-06T01:43:57;94203.34;;;-0.02;86.12
59009;BME280;44794;42.652;23.318;2023-04-06T01:46:22;94209.41;;;-0.04;86.14
59009;BME280;44794;42.652;23.318;2023-04-06T01:48:48;94212.59;;;0.00;86.10
59009;BME280;44794;42.652;23.318;2023-04-06T01:51:14;94207.56;;;-0.01;85.97
59009;BME280;44794;42.652;23.318;2023-04-06T01:53:39;94204.84;;;0.02;86.14
59009;BME280;44794;42.652;23.318;2023-04-06T01:56:05;94201.31;;;0.06;85.91
59009;BME280;44794;42.652;23.318;2023-04-06T01:58:30;94203.91;;;0.04;85.91
59009;BME280;44794;42.652;23.318;2023-04-06T02:00:56;94199.50;;;0.08;85.79
59009;BME280;44794;42.652;23.318;2023-04-06T02:03:22;94198.63;;;0.09;85.79
59009;BME280;44794;42.652;23.318;2023-04-06T02:05:47;94194.41;;;0.08;85.50
59009;BME280;44794;42.652;23.318;2023-04-06T02:08:12;94198.50;;;0.12;85.34
59009;BME280;44794;42.652;23.318;2023-04-06T02:10:38;94195.31;;;0.07;85.13
59009;BME280;44794;42.652;23.318;2023-04-06T02:13:03;94203.53;;;0.13;85.04
59009;BME280;44794;42.652;23.318;2023-04-06T02:15:29;94202.72;;;0.13;85.06
59009;BME280;44794;42.652;23.318;2023-04-06T02:17:54;94196.78;;;0.12;84.91
59009;BME280;44794;42.652;23.318;2023-04-06T02:20:20;94205.97;;;0.16;84.66
59009;BME280;44794;42.652;23.318;2023-04-06T02:22:45;94207.56;;;0.19;84.89
59009;BME280;44794;42.652;23.318;2023-04-06T02:25:11;94200.88;;;0.16;84.86
59009;BME280;44794;42.652;23.318;2023-04-06T02:27:37;94206.72;;;0.18;85.22
59009;BME280;44794;42.652;23.318;2023-04-06T02:30:03;94197.19;;;0.23;85.14
59009;BME280;44794;42.652;23.318;2023-04-06T02:32:29;94199.72;;;0.23;85.13
59009;BME280;44794;42.652;23.318;2023-04-06T02:34:54;94202.22;;;0.25;84.89
59009;BME280;44794;42.652;23.318;2023-04-06T02:37:20;94209.75;;;0.28;85.03
59009;BME280;44794;42.652;23.318;2023-04-06T02:39:46;94204.84;;;0.23;84.54
59009;BME280;44794;42.652;23.318;2023-04-06T02:42:12;94205.66;;;0.24;84.47
59009;BME280;44794;42.652;23.318;2023-04-06T02:44:37;94203.03;;;0.25;84.77
59009;BME280;44794;42.652;23.318;2023-04-06T02:47:03;94192.25;;;0.19;84.73
59009;BME280;44794;42.652;23.318;2023-04-06T02:49:28;94197.34;;;0.19;84.76
59009;BME280;44794;42.652;23.318;2023-04-06T02:51:54;94190.59;;;0.18;85.04
59009;BME280;44794;42.652;23.318;2023-04-06T02:54:19;94185.56;;;0.16;85.11
59009;BME280;44794;42.652;23.318;2023-04-06T02:56:45;94194.81;;;0.19;85.41
59009;BME280;44794;42.652;23.318;2023-04-06T02:59:10;94188.03;;;0.18;85.17
59009;BME280;44794;42.652;23.318;2023-04-06T03:01:36;94195.69;;;0.18;85.13
59009;BME280;44794;42.652;23.318;2023-04-06T03:04:02;94182.41;;;0.10;85.00
59009;BME280;44794;42.652;23.318;2023-04-06T03:06:27;94180.81;;;0.07;85.37
59009;BME280;44794;42.652;23.318;2023-04-06T03:08:53;94186.50;;;0.14;85.78
59009;BME280;44794;42.652;23.318;2023-04-06T03:11:18;94181.59;;;0.09;85.98
59009;BME280;44794;42.652;23.318;2023-04-06T03:13:44;94181.59;;;0.09;86.04
59009;BME280;44794;42.652;23.318;2023-04-06T03:16:10;94184.34;;;0.05;86.11
59009;BME280;44794;42.652;23.318;2023-04-06T03:18:35;94181.88;;;0.02;86.12
59009;BME280;44794;42.652;23.318;2023-04-06T03:21:01;94191.22;;;0.03;86.28
59009;BME280;44794;42.652;23.318;2023-04-06T03:23:26;94185.34;;;0.01;86.32
59009;BME280;44794;42.652;23.318;2023-04-06T03:25:51;94176.78;;;0.02;86.28
59009;BME280;44794;42.652;23.318;2023-04-06T03:28:17;94187.94;;;-0.01;86.19
59009;BME280;44794;42.652;23.318;2023-04-06T03:30:42;94178.59;;;0.00;86.36
59009;BME280;44794;42.652;23.318;2023-04-06T03:33:08;94189.50;;;0.03;86.18
59009;BME280;44794;42.652;23.318;2023-04-06T03:35:33;94179.69;;;0.14;88.19
59009;BME280;44794;42.652;23.318;2023-04-06T03:37:59;94188.75;;;0.21;87.65
59009;BME280;44794;42.652;23.318;2023-04-06T03:40:24;94182.66;;;0.24;86.56
59009;BME280;44794;42.652;23.318;2023-04-06T03:42:50;94190.22;;;0.27;85.77
59009;BME280;44794;42.652;23.318;2023-04-06T03:45:16;94196.47;;;0.40;85.27
59009;BME280;44794;42.652;23.318;2023-04-06T03:47:41;94192.19;;;0.40;84.89
59009;BME280;44794;42.652;23.318;2023-04-06T03:50:07;94201.31;;;0.46;84.60
59009;BME280;44794;42.652;23.318;2023-04-06T03:52:32;94196.78;;;0.52;84.26
59009;BME280;44794;42.652;23.318;2023-04-06T03:54:58;94195.56;;;0.61;83.60
59009;BME280;44794;42.652;23.318;2023-04-06T03:57:23;94191.53;;;0.55;83.50
59009;BME280;44794;42.652;23.318;2023-04-06T03:59:49;94195.19;;;0.70;83.29
59009;BME280;44794;42.652;23.318;2023-04-06T04:02:14;94192.28;;;0.77;83.53
59009;BME280;44794;42.652;23.318;2023-04-06T04:04:40;94188.25;;;0.72;82.76
59009;BME280;44794;42.652;23.318;2023-04-06T04:07:05;94190.53;;;0.59;81.97
59009;BME280;44794;42.652;23.318;2023-04-06T04:09:31;94196.91;;;0.49;81.98
59009;BME280;44794;42.652;23.318;2023-04-06T04:11:56;94200.50;;;0.45;82.35
59009;BME280;44794;42.652;23.318;2023-04-06T04:14:22;94194.44;;;0.48;82.44
59009;BME280;44794;42.652;23.318;2023-04-06T04:16:47;94194.34;;;0.49;82.51
59009;BME280;44794;42.652;23.318;2023-04-06T04:19:13;94201.06;;;0.52;82.62
59009;BME280;44794;42.652;23.318;2023-04-06T04:21:45;94200.94;;;0.55;82.74
59009;BME280;44794;42.652;23.318;2023-04-06T04:24:11;94199.53;;;0.48;82.70
59009;BME280;44794;42.652;23.318;2023-04-06T04:26:38;94200.16;;;0.53;82.68
59009;BME280;44794;42.652;23.318;2023-04-06T04:29:04;94206.94;;;0.54;82.85
59009;BME280;44794;42.652;23.318;2023-04-06T04:31:29;94197.50;;;0.56;82.81
59009;BME280;44794;42.652;23.318;2023-04-06T04:33:55;94208.19;;;0.64;82.75
59009;BME280;44794;42.652;23.318;2023-04-06T04:36:21;94207.63;;;0.57;82.66
59009;BME280;44794;42.652;23.318;2023-04-06T04:38:46;94209.75;;;0.68;82.92
59009;BME280;44794;42.652;23.318;2023-04-06T04:41:12;94213.00;;;0.71;82.57
59009;BME280;44794;42.652;23.318;2023-04-06T04:43:37;94212.16;;;0.71;81.95
59009;BME280;44794;42.652;23.318;2023-04-06T04:46:04;94204.69;;;0.86;82.19
59009;BME280;44794;42.652;23.318;2023-04-06T04:48:30;94206.19;;;0.90;81.84
59009;BME280;44794;42.652;23.318;2023-04-06T04:50:55;94204.47;;;0.90;81.37
59009;BME280;44794;42.652;23.318;2023-04-06T04:53:21;94201.50;;;0.99;81.52
59009;BME280;44794;42.652;23.318;2023-04-06T04:55:46;94201.72;;;1.13;81.58
59009;BME280;44794;42.652;23.318;2023-04-06T04:58:12;94206.84;;;1.13;81.18
59009;BME280;44794;42.652;23.318;2023-04-06T05:00:44;94209.38;;;1.13;80.39
59009;BME280;44794;42.652;23.318;2023-04-06T05:03:14;94202.97;;;1.05;80.62
59009;BME280;44794;42.652;23.318;2023-04-06T05:05:41;94211.22;;;1.11;80.32
59009;BME280;44794;42.652;23.318;2023-04-06T05:08:07;94208.56;;;1.13;80.34
59009;BME280;44794;42.652;23.318;2023-04-06T05:10:32;94201.41;;;1.21;80.22
59009;BME280;44794;42.652;23.318;2023-04-06T05:12:59;94207.69;;;1.32;80.08
59009;BME280;44794;42.652;23.318;2023-04-06T05:15:24;94200.84;;;1.51;79.73
59009;BME280;44794;42.652;23.318;2023-04-06T05:17:50;94206.28;;;1.62;79.08
59009;BME280;44794;42.652;23.318;2023-04-06T05:20:16;94203.00;;;1.77;78.38
59009;BME280;44794;42.652;23.318;2023-04-06T05:22:41;94200.78;;;1.88;77.83
59009;BME280;44794;42.652;23.318;2023-04-06T05:25:07;94196.97;;;1.96;77.45
59009;BME280;44794;42.652;23.318;2023-04-06T05:27:33;94208.88;;;1.97;77.29
59009;BME280;44794;42.652;23.318;2023-04-06T05:29:58;94212.59;;;2.09;77.02
59009;BME280;44794;42.652;23.318;2023-04-06T05:32:24;94204.81;;;2.10;77.05
59009;BME280;44794;42.652;23.318;2023-04-06T05:34:50;94206.81;;;2.04;76.58
59009;BME280;44794;42.652;23.318;2023-04-06T05:37:15;94207.34;;;1.93;76.86
59009;BME280;44794;42.652;23.318;2023-04-06T05:39:41;94204.78;;;1.58;77.59
59009;BME280;44794;42.652;23.318;2023-04-06T05:42:06;94202.53;;;1.50;78.51
59009;BME280;44794;42.652;23.318;2023-04-06T05:44:32;94207.22;;;1.78;78.99
59009;BME280;44794;42.652;23.318;2023-04-06T05:46:57;94194.38;;;1.61;78.53
59009;BME280;44794;42.652;23.318;2023-04-06T05:49:23;94196.44;;;1.71;78.79
59009;BME280;44794;42.652;23.318;2023-04-06T05:51:48;94192.50;;;1.64;78.89
59009;BME280;44794;42.652;23.318;2023-04-06T05:54:14;94192.28;;;1.69;79.21
59009;BME280;44794;42.652;23.318;2023-04-06T05:56:39;94198.75;;;1.59;79.18
59009;BME280;44794;42.652;23.318;2023-04-06T05:59:05;94189.84;;;1.49;79.86
59009;BME280;44794;42.652;23.318;2023-04-06T06:01:31;94185.81;;;1.62;79.98
59009;BME280;44794;42.652;23.318;2023-04-06T06:03:56;94181.88;;;1.55;79.95
59009;BME280;44794;42.652;23.318;2023-04-06T06:06:22;94184.16;;;1.61;79.99
59009;BME280;44794;42.652;23.318;2023-04-06T06:08:47;94184.97;;;1.80;79.47
59009;BME280;44794;42.652;23.318;2023-04-06T06:11:12;94176.00;;;1.88;78.76
59009;BME280;44794;42.652;23.318;2023-04-06T06:13:38;94191.16;;;1.93;78.89
59009;BME280;44794;42.652;23.318;2023-04-06T06:16:04;94187.13;;;2.22;78.06
59009;BME280;44794;42.652;23.318;2023-04-06T06:18:30;94184.94;;;2.32;77.40
59009;BME280;44794;42.652;23.318;2023-04-06T06:20:56;94195.03;;;2.35;77.39
59009;BME280;44794;42.652;23.318;2023-04-06T06:23:22;94193.53;;;2.31;76.98
59009;BME280;44794;42.652;23.318;2023-04-06T06:25:47;94195.13;;;2.50;76.83
59009;BME280;44794;42.652;23.318;2023-04-06T06:28:13;94187.31;;;2.86;75.86
59009;BME280;44794;42.652;23.318;2023-04-06T06:30:39;94192.69;;;3.29;74.34
59009;BME280;44794;42.652;23.318;2023-04-06T06:33:04;94206.63;;;3.56;72.11
59009;BME280;44794;42.652;23.318;2023-04-06T06:35:30;94195.53;;;3.55;71.43
59009;BME280;44794;42.652;23.318;2023-04-06T06:37:55;94195.22;;;3.61;70.76
59009;BME280;44794;42.652;23.318;2023-04-06T06:40:21;94199.16;;;3.36;71.08
59009;BME280;44794;42.652;23.318;2023-04-06T06:42:49;94196.03;;;3.77;70.61
59009;BME280;44794;42.652;23.318;2023-04-06T06:45:15;94202.34;;;3.71;69.45
59009;BME280;44794;42.652;23.318;2023-04-06T06:47:40;94199.91;;;3.99;68.59
59009;BME280;44794;42.652;23.318;2023-04-06T06:50:06;94210.97;;;4.31;66.58
59009;BME280;44794;42.652;23.318;2023-04-06T06:52:32;94199.28;;;4.84;65.46
59009;BME280;44794;42.652;23.318;2023-04-06T06:54:57;94197.41;;;4.13;66.36
59009;BME280;44794;42.652;23.318;2023-04-06T06:57:23;94201.63;;;4.14;68.00
59009;BME280;44794;42.652;23.318;2023-04-06T06:59:48;94195.03;;;4.10;66.86
59009;BME280;44794;42.652;23.318;2023-04-06T07:02:14;94194.03;;;3.82;67.60
59009;BME280;44794;42.652;23.318;2023-04-06T07:04:40;94200.41;;;4.06;67.34
59009;BME280;44794;42.652;23.318;2023-04-06T07:07:05;94195.22;;;3.92;66.90
59009;BME280;44794;42.652;23.318;2023-04-06T07:09:31;94187.84;;;3.55;68.07
59009;BME280;44794;42.652;23.318;2023-04-06T07:11:56;94195.25;;;3.29;69.34
59009;BME280;44794;42.652;23.318;2023-04-06T07:14:22;94181.63;;;3.44;69.55
59009;BME280;44794;42.652;23.318;2023-04-06T07:16:47;94160.09;;;3.15;70.72
59009;BME280;44794;42.652;23.318;2023-04-06T07:19:15;94169.84;;;3.24;72.23
59009;BME280;44794;42.652;23.318;2023-04-06T07:21:40;94170.34;;;3.15;71.14
59009;BME280;44794;42.652;23.318;2023-04-06T07:24:06;94183.09;;;3.32;70.22
59009;BME280;44794;42.652;23.318;2023-04-06T07:26:32;94187.56;;;3.29;68.58
59009;BME280;44794;42.652;23.318;2023-04-06T07:28:57;94176.81;;;3.53;69.47
59009;BME280;44794;42.652;23.318;2023-04-06T07:31:23;94189.31;;;3.90;68.27
59009;BME280;44794;42.652;23.318;2023-04-06T07:33:48;94191.97;;;3.73;66.28
59009;BME280;44794;42.652;23.318;2023-04-06T07:36:15;94193.56;;;3.75;66.99
59009;BME280;44794;42.652;23.318;2023-04-06T07:38:40;94192.06;;;3.71;66.87
59009;BME280;44794;42.652;23.318;2023-04-06T07:41:06;94182.03;;;3.52;67.90
59009;BME280;44794;42.652;23.318;2023-04-06T07:43:31;94178.97;;;3.30;68.40
59009;BME280;44794;42.652;23.318;2023-04-06T07:45:57;94178.53;;;3.22;68.54
59009;BME280;44794;42.652;23.318;2023-04-06T07:48:24;94175.63;;;2.80;71.35
59009;BME280;44794;42.652;23.318;2023-04-06T07:50:50;94169.94;;;2.91;72.37
59009;BME280;44794;42.652;23.318;2023-04-06T07:53:15;94169.34;;;3.18;72.40
59009;BME280;44794;42.652;23.318;2023-04-06T07:55:41;94167.03;;;2.81;72.84
59009;BME280;44794;42.652;23.318;2023-04-06T07:58:06;94176.59;;;3.10;72.79
59009;BME280;44794;42.652;23.318;2023-04-06T08:00:32;94167.53;;;3.20;72.49
59009;BME280;44794;42.652;23.318;2023-04-06T08:02:57;94186.00;;;3.42;72.84
59009;BME280;44794;42.652;23.318;2023-04-06T08:05:23;94166.69;;;3.35;72.61
59009;BME280;44794;42.652;23.318;2023-04-06T08:07:48;94153.78;;;3.21;72.60
59009;BME280;44794;42.652;23.318;2023-04-06T08:10:14;94163.34;;;3.02;73.33
59009;BME280;44794;42.652;23.318;2023-04-06T08:12:40;94178.84;;;2.84;74.56
59009;BME280;44794;42.652;23.318;2023-04-06T08:15:05;94176.06;;;3.20;73.89
59009;BME280;44794;42.652;23.318;2023-04-06T08:17:32;94182.47;;;3.60;73.04
59009;BME280;44794;42.652;23.318;2023-04-06T08:19:57;94184.22;;;4.19;72.13
59009;BME280;44794;42.652;23.318;2023-04-06T08:22:23;94190.09;;;4.50;70.24
59009;BME280;44794;42.652;23.318;2023-04-06T08:24:48;94189.00;;;4.25;67.55
59009;BME280;44794;42.652;23.318;2023-04-06T08:27:14;94194.69;;;4.45;65.84
59009;BME280;44794;42.652;23.318;2023-04-06T08:29:40;94195.91;;;4.83;64.69
59009;BME280;44794;42.652;23.318;2023-04-06T08:32:05;94184.09;;;4.36;65.02
59009;BME280;44794;42.652;23.318;2023-04-06T08:34:34;94189.38;;;4.04;66.83
59009;BME280;44794;42.652;23.318;2023-04-06T08:37:00;94193.28;;;4.40;65.67
59009;BME280;44794;42.652;23.318;2023-04-06T08:39:25;94199.53;;;4.36;65.51
59009;BME280;44794;42.652;23.318;2023-04-06T08:41:52;94190.28;;;4.91;64.38
59009;BME280;44794;42.652;23.318;2023-04-06T08:44:18;94209.56;;;4.84;61.14
59009;BME280;44794;42.652;23.318;2023-04-06T08:46:44;94212.94;;;5.14;59.54
59009;BME280;44794;42.652;23.318;2023-04-06T08:49:10;94216.59;;;4.66;58.99
59009;BME280;44794;42.652;23.318;2023-04-06T08:51:37;94216.03;;;4.32;60.15
59009;BME280;44794;42.652;23.318;2023-04-06T08:54:03;94204.09;;;4.31;60.86
59009;BME280;44794;42.652;23.318;2023-04-06T08:56:28;94198.69;;;4.36;61.73
59009;BME280;44794;42.652;23.318;2023-04-06T08:58:55;94199.31;;;4.54;60.55
59009;BME280;44794;42.652;23.318;2023-04-06T09:01:23;94189.38;;;4.92;62.04
59009;BME280;44794;42.652;23.318;2023-04-06T09:03:51;94206.72;;;4.45;60.72
59009;BME280;44794;42.652;23.318;2023-04-06T09:06:19;94179.03;;;4.64;61.06
59009;BME280;44794;42.652;23.318;2023-04-06T09:08:45;94191.47;;;4.42;60.80
59009;BME280;44794;42.652;23.318;2023-04-06T09:11:10;94199.50;;;4.07;61.08
59009;BME280;44794;42.652;23.318;2023-04-06T09:13:51;94195.75;;;4.28;61.37
59009;BME280;44794;42.652;23.318;2023-04-06T09:16:18;94207.59;;;4.30;61.14
59009;BME280;44794;42.652;23.318;2023-04-06T09:18:44;94203.97;;;4.19;61.82
59009;BME280;44794;42.652;23.318;2023-04-06T09:21:10;94188.09;;;4.26;61.83
59009;BME280;44794;42.652;23.318;2023-04-06T09:23:37;94192.88;;;4.47;61.07
59009;BME280;44794;42.652;23.318;2023-04-06T09:26:05;94188.53;;;4.48;61.40
59009;BME280;44794;42.652;23.318;2023-04-06T09:28:44;94185.50;;;4.71;62.29
59009;BME280;44794;42.652;23.318;2023-04-06T09:31:12;94194.03;;;4.42;61.94
59009;BME280;44794;42.652;23.318;2023-04-06T09:33:44;94192.16;;;4.30;61.50
59009;BME280;44794;42.652;23.318;2023-04-06T09:36:11;94188.56;;;4.03;61.95
59009;BME280;44794;42.652;23.318;2023-04-06T09:38:55;94195.66;;;4.29;63.94
59009;BME280;44794;42.652;23.318;2023-04-06T09:41:31;94190.94;;;4.51;59.85
59009;BME280;44794;42.652;23.318;2023-04-06T09:44:04;94189.56;;;4.45;60.04
59009;BME280;44794;42.652;23.318;2023-04-06T09:46:32;94187.72;;;4.91;61.15
59009;BME280;44794;42.652;23.318;2023-04-06T09:49:00;94180.84;;;5.47;57.78
59009;BME280;44794;42.652;23.318;2023-04-06T09:51:30;94193.41;;;5.51;56.08
59009;BME280;44794;42.652;23.318;2023-04-06T09:53:56;94200.81;;;5.57;55.71
59009;BME280;44794;42.652;23.318;2023-04-06T09:56:28;94198.44;;;6.08;54.41
59009;BME280;44794;42.652;23.318;2023-04-06T09:59:02;94195.13;;;6.06;52.99
59009;BME280;44794;42.652;23.318;2023-04-06T10:01:32;94190.16;;;5.90;54.08
59009;BME280;44794;42.652;23.318;2023-04-06T10:06:49;94192.13;;;5.44;53.31
59009;BME280;44794;42.652;23.318;2023-04-06T10:09:18;94193.75;;;6.01;54.31
59009;BME280;44794;42.652;23.318;2023-04-06T10:11:48;94193.69;;;6.15;53.28
59009;BME280;44794;42.652;23.318;2023-04-06T10:14:15;94187.13;;;5.97;51.99
59009;BME280;44794;42.652;23.318;2023-04-06T10:16:41;94189.13;;;5.80;53.51
59009;BME280;44794;42.652;23.318;2023-04-06T10:19:13;94184.06;;;6.04;53.66
59009;BME280;44794;42.652;23.318;2023-04-06T10:21:39;94186.31;;;5.69;53.78
59009;BME280;44794;42.652;23.318;2023-04-06T10:24:08;94181.66;;;5.47;53.45
59009;BME280;44794;42.652;23.318;2023-04-06T10:26:37;94175.66;;;6.15;52.77
59009;BME280;44794;42.652;23.318;2023-04-06T10:29:04;94191.50;;;6.09;51.52
59009;BME280;44794;42.652;23.318;2023-04-06T10:31:29;94178.16;;;6.16;51.62
59009;BME280;44794;42.652;23.318;2023-04-06T10:34:02;94176.25;;;6.83;50.27
59009;BME280;44794;42.652;23.318;2023-04-06T10:36:31;94170.41;;;6.55;51.08
59009;BME280;44794;42.652;23.318;2023-04-06T10:39:00;94163.72;;;6.00;52.32
59009;BME280;44794;42.652;23.318;2023-04-06T10:43:59;94165.56;;;6.12;52.15
59009;BME280;44794;42.652;23.318;2023-04-06T10:46:27;94163.25;;;5.67;52.23
59009;BME280;44794;42.652;23.318;2023-04-06T10:48:53;94157.97;;;5.42;53.60
59009;BME280;44794;42.652;23.318;2023-04-06T10:51:19;94168.44;;;5.39;54.38
59009;BME280;44794;42.652;23.318;2023-04-06T10:53:49;94156.56;;;5.37;54.46
59009;BME280;44794;42.652;23.318;2023-04-06T10:56:16;94164.91;;;5.68;54.52
59009;BME280;44794;42.652;23.318;2023-04-06T10:58:49;94172.59;;;6.22;53.08
59009;BME280;44794;42.652;23.318;2023-04-06T11:01:18;94174.78;;;6.02;52.64
59009;BME280;44794;42.652;23.318;2023-04-06T11:03:51;94169.06;;;5.57;53.54
59009;BME280;44794;42.652;23.318;2023-04-06T11:06:25;94148.75;;;5.24;54.95
59009;BME280;44794;42.652;23.318;2023-04-06T11:08:52;94150.66;;;5.63;55.48
59009;BME280;44794;42.652;23.318;2023-04-06T11:11:20;94155.75;;;5.50;54.19
59009;BME280;44794;42.652;23.318;2023-04-06T11:13:51;94150.00;;;5.59;52.68
59009;BME280;44794;42.652;23.318;2023-04-06T11:16:20;94143.50;;;5.54;53.02
59009;BME280;44794;42.652;23.318;2023-04-06T11:18:58;94155.59;;;5.94;52.33
59009;BME280;44794;42.652;23.318;2023-04-06T11:21:44;94155.16;;;5.59;52.79
59009;BME280;44794;42.652;23.318;2023-04-06T11:24:17;94145.25;;;5.53;53.33
59009;BME280;44794;42.652;23.318;2023-04-06T11:26:45;94132.38;;;5.39;54.32
59009;BME280;44794;42.652;23.318;2023-04-06T11:29:19;94143.97;;;5.32;53.90
59009;BME280;44794;42.652;23.318;2023-04-06T11:31:58;94136.97;;;5.48;53.82
59009;BME280;44794;42.652;23.318;2023-04-06T11:34:25;94135.19;;;6.03;53.73
59009;BME280;44794;42.652;23.318;2023-04-06T11:36:56;94135.50;;;6.25;52.79
59009;BME280;44794;42.652;23.318;2023-04-06T11:39:26;94140.31;;;6.17;52.41
59009;BME280;44794;42.652;23.318;2023-04-06T11:41:57;94128.72;;;6.10;52.20
59009;BME280;44794;42.652;23.318;2023-04-06T11:44:32;94126.06;;;5.85;52.37
59009;BME280;44794;42.652;23.318;2023-04-06T11:46:58;94141.09;;;5.79;52.45
59009;BME280;44794;42.652;23.318;2023-04-06T11:49:31;94127.91;;;5.69;53.38
59009;BME280;44794;42.652;23.318;2023-04-06T11:51:57;94134.50;;;5.87;53.01
59009;BME280;44794;42.652;23.318;2023-04-06T11:54:37;94131.50;;;6.07;52.86
59009;BME280;44794;42.652;23.318;2023-04-06T11:57:04;94124.75;;;5.92;52.51
59009;BME280;44794;42.652;23.318;2023-04-06T11:59:30;94123.31;;;5.74;52.89
59009;BME280;44794;42.652;23.318;2023-04-06T12:01:57;94116.19;;;5.37;53.83
59009;BME280;44794;42.652;23.318;2023-04-06T12:04:23;94115.03;;;5.69;54.20
59009;BME280;44794;42.652;23.318;2023-04-06T12:06:49;94121.44;;;5.90;53.07
59009;BME280;44794;42.652;23.318;2023-04-06T12:09:16;94118.56;;;5.54;53.95
59009;BME280;44794;42.652;23.318;2023-04-06T12:11:45;94118.53;;;5.68;52.87
59009;BME280;44794;42.652;23.318;2023-04-06T12:14:11;94116.63;;;5.58;53.16
59009;BME280;44794;42.652;23.318;2023-04-06T12:16:37;94115.13;;;5.27;53.42
59009;BME280;44794;42.652;23.318;2023-04-06T12:19:03;94112.28;;;5.32;53.54
59009;BME280;44794;42.652;23.318;2023-04-06T12:21:30;94105.59;;;5.16;54.50
59009;BME280;44794;42.652;23.318;2023-04-06T12:23:59;94105.59;;;5.16;54.49
59009;BME280;44794;42.652;23.318;2023-04-06T12:26:25;94113.09;;;5.18;54.58
59009;BME280;44794;42.652;23.318;2023-04-06T12:28:51;94111.72;;;5.27;54.86
59009;BME280;44794;42.652;23.318;2023-04-06T12:31:20;94105.25;;;5.34;55.32
59009;BME280;44794;42.652;23.318;2023-04-06T12:33:47;94107.84;;;5.34;54.69
59009;BME280;44794;42.652;23.318;2023-04-06T12:36:14;94109.06;;;5.28;55.01
59009;BME280;44794;42.652;23.318;2023-04-06T12:38:41;94110.66;;;5.03;55.42
59009;BME280;44794;42.652;23.318;2023-04-06T12:41:07;94104.66;;;5.17;55.81
59009;BME280;44794;42.652;23.318;2023-04-06T12:43:33;94101.81;;;5.07;55.38
59009;BME280;44794;42.652;23.318;2023-04-06T12:45:59;94096.59;;;5.09;55.74
59009;BME280;44794;42.652;23.318;2023-04-06T12:48:27;94087.72;;;5.26;54.63
59009;BME280;44794;42.652;23.318;2023-04-06T12:50:59;94101.44;;;4.99;54.44
59009;BME280;44794;42.652;23.318;2023-04-06T12:53:26;94092.59;;;5.31;53.99
59009;BME280;44794;42.652;23.318;2023-04-06T12:55:53;94093.09;;;5.50;53.42
59009;BME280;44794;42.652;23.318;2023-04-06T12:58:19;94096.50;;;5.64;52.46
59009;BME280;44794;42.652;23.318;2023-04-06T13:00:46;94094.72;;;5.79;52.37